Terminal Aerodrome Forecast
Issued by NWS

Current Version | Previous Version | Graphics & Text | Print | Product List | Glossary On
Versions: 1 2 3 4 5 6 7 8 9 10 11 12 13 14 15 16 17 18 19 20 21 22
000
FTUS41 KPBZ 211700 RRA
TAFMGW
TAF
KMGW 211744Z 2118/2218 24010KT P6SM BKN015 BKN025
     FM212000 25010G15KT P6SM VCSH SCT035 BKN050
      TEMPO 2121/2124 27015G25KT -TSRA BKN035CB
     FM220000 28010G15KT P6SM BKN040
     FM220100 31008KT P6SM BKN025=

USA.gov is the U.S. government's official web portal to all federal, state and local government web resources and services.